Time,TemperatureF,DewpointF,PressureIn,WindDirection,WindDirectionDegrees,WindSpeedMPH,WindSpeedGustMPH,Humidity,HourlyPrecipIn,Conditions,Clouds,dailyrainin,SolarRadiationWatts/m^2,SoftwareType,DateUTC
2013-03-22 00:00:00,26.0,18.0,-100.00,WNW,292,4.0,-999.0,71,-99.99,,,-99.99,0.000000,,2013-03-22 04:00:00,
2013-03-22 00:43:00,26.0,18.0,-100.00,WNW,292,4.0,-999.0,71,-99.99,,,-99.99,0.000000,,2013-03-22 04:43:00,
2013-03-22 00:52:00,26.0,18.0,-100.00,WNW,292,4.0,-999.0,71,-99.99,,,-99.99,0.000000,,2013-03-22 04:52:00,
2013-03-22 01:00:00,26.0,18.0,-100.00,WNW,292,6.0,-999.0,69,-99.99,,,-99.99,0.000000,,2013-03-22 05:00:00,
2013-03-22 01:42:00,26.0,18.0,-100.00,WNW,292,6.0,-999.0,69,-99.99,,,-99.99,0.000000,,2013-03-22 05:42:00,
2013-03-22 01:52:00,26.0,18.0,-100.00,WNW,292,6.0,-999.0,69,-99.99,,,-99.99,0.000000,,2013-03-22 05:52:00,
2013-03-22 02:00:00,26.0,18.0,-100.00,WNW,292,6.0,-999.0,68,-99.99,,,-99.99,0.000000,,2013-03-22 06:00:00,
2013-03-22 02:43:00,26.0,18.0,-100.00,WNW,292,6.0,-999.0,68,-99.99,,,-99.99,0.000000,,2013-03-22 06:43:00,
2013-03-22 02:52:00,26.0,18.0,-100.00,WNW,292,6.0,-999.0,68,-99.99,,,-99.99,0.000000,,2013-03-22 06:52:00,
2013-03-22 03:00:00,26.0,17.0,-100.00,WNW,292,3.0,-999.0,69,-99.99,,,-99.99,0.000000,,2013-03-22 07:00:00,
2013-03-22 03:42:00,26.0,17.0,-100.00,WNW,292,3.0,-999.0,69,-99.99,,,-99.99,0.000000,,2013-03-22 07:42:00,
2013-03-22 03:52:00,26.0,17.0,-100.00,WNW,292,3.0,-999.0,69,-99.99,,,-99.99,0.000000,,2013-03-22 07:52:00,
2013-03-22 04:00:00,25.0,16.0,-100.00,West,270,3.0,-999.0,69,-99.99,,,-99.99,0.000000,,2013-03-22 08:00:00,
2013-03-22 04:42:00,25.0,16.0,-100.00,West,270,3.0,-999.0,69,-99.99,,,-99.99,0.000000,,2013-03-22 08:42:00,
2013-03-22 04:52:00,25.0,16.0,-100.00,West,270,3.0,-999.0,69,-99.99,,,-99.99,0.000000,,2013-03-22 08:52:00,
2013-03-22 07:00:00,17.0,13.0,-100.00,SW,225,0.0,-999.0,85,0.01,,,-99.99,0.000000,,2013-03-22 11:00:00,
2013-03-22 07:42:00,17.0,13.0,-100.00,SW,225,0.0,-999.0,85,0.01,,,-99.99,0.000000,,2013-03-22 11:42:00,
2013-03-22 07:52:00,17.0,13.0,-100.00,SW,225,0.0,-999.0,85,0.01,,,-99.99,0.000000,,2013-03-22 11:52:00,
2013-03-22 08:00:00,14.0,12.0,-100.00,South,180,1.0,-999.0,90,-99.99,,,-99.99,3.480000,,2013-03-22 12:00:00,
2013-03-22 08:42:00,14.0,12.0,-100.00,South,180,1.0,-999.0,90,-99.99,,,-99.99,3.480000,,2013-03-22 12:42:00,
2013-03-22 08:52:00,14.0,12.0,-100.00,South,180,1.0,-999.0,90,-99.99,,,-99.99,3.480000,,2013-03-22 12:52:00,
2013-03-22 09:00:00,16.0,14.0,-100.00,South,180,0.0,-999.0,89,-99.99,,,-99.99,95.120003,,2013-03-22 13:00:00,
2013-03-22 09:42:00,16.0,14.0,-100.00,South,180,0.0,-999.0,89,-99.99,,,-99.99,95.120003,,2013-03-22 13:42:00,
2013-03-22 09:52:00,16.0,14.0,-100.00,South,180,0.0,-999.0,89,-99.99,,,-99.99,95.120003,,2013-03-22 13:52:00,
2013-03-22 10:00:00,26.0,17.0,-100.00,SSW,202,2.0,-999.0,69,-99.99,,,-99.99,300.440002,,2013-03-22 14:00:00,
2013-03-22 10:43:00,26.0,17.0,-100.00,SSW,202,2.0,-999.0,69,-99.99,,,-99.99,300.440002,,2013-03-22 14:43:00,
2013-03-22 10:52:00,26.0,17.0,-100.00,SSW,202,2.0,-999.0,69,-99.99,,,-99.99,300.440002,,2013-03-22 14:52:00,
2013-03-22 11:00:00,30.0,19.0,-100.00,West,270,8.0,-999.0,63,-99.99,,,-99.99,460.519989,,2013-03-22 15:00:00,
2013-03-22 11:43:00,30.0,19.0,-100.00,West,270,8.0,-999.0,63,-99.99,,,-99.99,460.519989,,2013-03-22 15:43:00,
2013-03-22 11:53:00,30.0,19.0,-100.00,West,270,8.0,-999.0,63,-99.99,,,-99.99,460.519989,,2013-03-22 15:53:00,
2013-03-22 12:00:00,32.0,19.0,-100.00,West,270,7.0,-999.0,58,-99.99,,,-99.99,627.559998,,2013-03-22 16:00:00,
2013-03-22 12:42:00,32.0,19.0,-100.00,West,270,7.0,-999.0,58,-99.99,,,-99.99,627.559998,,2013-03-22 16:42:00,
2013-03-22 12:52:00,32.0,19.0,-100.00,West,270,7.0,-999.0,58,-99.99,,,-99.99,627.559998,,2013-03-22 16:52:00,
2013-03-22 13:00:00,33.0,19.0,-100.00,West,270,6.0,-999.0,55,-99.99,,,-99.99,750.520020,,2013-03-22 17:00:00,
2013-03-22 13:42:00,33.0,19.0,-100.00,West,270,6.0,-999.0,55,-99.99,,,-99.99,750.520020,,2013-03-22 17:42:00,
2013-03-22 13:53:00,33.0,19.0,-100.00,West,270,6.0,-999.0,55,-99.99,,,-99.99,750.520020,,2013-03-22 17:53:00,
2013-03-22 15:00:00,34.0,23.0,-100.00,West,270,8.0,-999.0,65,-99.99,,,-99.99,815.479980,,2013-03-22 19:00:00,
2013-03-22 15:43:00,34.0,23.0,-100.00,West,270,8.0,-999.0,65,-99.99,,,-99.99,815.479980,,2013-03-22 19:43:00,
2013-03-22 15:52:00,34.0,23.0,-100.00,West,270,8.0,-999.0,65,-99.99,,,-99.99,815.479980,,2013-03-22 19:52:00,
2013-03-22 16:00:00,34.0,24.0,-100.00,West,270,8.0,-999.0,66,-99.99,,,-99.99,700.640015,,2013-03-22 20:00:00,
2013-03-22 16:43:00,34.0,24.0,-100.00,West,270,8.0,-999.0,66,-99.99,,,-99.99,700.640015,,2013-03-22 20:43:00,
2013-03-22 16:52:00,34.0,24.0,-100.00,West,270,8.0,-999.0,66,-99.99,,,-99.99,700.640015,,2013-03-22 20:52:00,
2013-03-22 17:00:00,34.0,23.0,-100.00,WNW,292,8.0,-999.0,65,-99.99,,,-99.99,515.039978,,2013-03-22 21:00:00,
2013-03-22 17:43:00,34.0,23.0,-100.00,WNW,292,8.0,-999.0,65,-99.99,,,-99.99,515.039978,,2013-03-22 21:43:00,
2013-03-22 17:53:00,34.0,23.0,-100.00,WNW,292,8.0,-999.0,65,-99.99,,,-99.99,515.039978,,2013-03-22 21:53:00,
2013-03-22 18:00:00,34.0,23.0,-100.00,WNW,292,8.0,-999.0,63,-99.99,,,-99.99,512.719971,,2013-03-22 22:00:00,
2013-03-22 18:43:00,34.0,23.0,-100.00,WNW,292,8.0,-999.0,63,-99.99,,,-99.99,512.719971,,2013-03-22 22:43:00,
2013-03-22 18:53:00,34.0,23.0,-100.00,WNW,292,8.0,-999.0,63,-99.99,,,-99.99,512.719971,,2013-03-22 22:53:00,
2013-03-22 19:00:00,33.0,23.0,-100.00,WNW,292,7.0,-999.0,65,-99.99,,,-99.99,258.679993,,2013-03-22 23:00:00,
2013-03-22 19:42:00,33.0,23.0,-100.00,WNW,292,7.0,-999.0,65,-99.99,,,-99.99,258.679993,,2013-03-22 23:42:00,
2013-03-22 19:52:00,33.0,23.0,-100.00,WNW,292,7.0,-999.0,65,-99.99,,,-99.99,258.679993,,2013-03-22 23:52:00,
2013-03-22 21:00:00,27.0,22.0,-100.00,NW,315,3.0,-999.0,79,-99.99,,,-99.99,0.000000,,2013-03-23 01:00:00,
2013-03-22 21:43:00,27.0,22.0,-100.00,NW,315,3.0,-999.0,79,-99.99,,,-99.99,0.000000,,2013-03-23 01:43:00,
2013-03-22 21:52:00,27.0,22.0,-100.00,NW,315,3.0,-999.0,79,-99.99,,,-99.99,0.000000,,2013-03-23 01:52:00,
2013-03-22 23:00:00,23.0,22.0,-100.00,NW,315,0.0,-999.0,94,-99.99,,,-99.99,0.000000,,2013-03-23 03:00:00,
2013-03-22 23:43:00,23.0,22.0,-100.00,NW,315,0.0,-999.0,94,-99.99,,,-99.99,0.000000,,2013-03-23 03:43:00,
2013-03-22 23:53:00,23.0,22.0,-100.00,NW,315,0.0,-999.0,94,-99.99,,,-99.99,0.000000,,2013-03-23 03:53:00,